Time;durP1;ratioP1;P1;durP2;ratioP2;P2;SDS_P1;SDS_P2;PMS_P1;PMS_P2;Temp;Humidity;BMP_temperature;BMP_pressure;BME280_temperature;BME280_humidity;BME280_pressure;Samples;Min_cycle;Max_cycle;Signal;HPM_P1;HPM_P2
2023/08/17 00:02:49;;;;;;;11.35;5.47;;;;;;;27.68;52.76;100366.20;1754319;81;21853;-73
2023/08/17 00:05:55;;;;;;;10.08;5.80;;;;;;;27.47;53.56;100370.21;1739211;82;21323;-73
2023/08/17 00:09:03;;;;;;;10.35;5.42;;;;;;;27.50;53.62;100368.25;1739357;82;21288;-78
2023/08/17 00:12:10;;;;;;;12.98;5.17;;;;;;;27.42;53.91;100377.25;1739467;82;21672;-73
2023/08/17 00:15:15;;;;;;;15.78;5.40;;;;;;;27.40;54.02;100371.94;1739188;82;21288;-75
2023/08/17 00:18:22;;;;;;;8.93;5.40;;;;;;;27.00;54.98;100373.69;1731419;81;21934;-72
2023/08/17 00:21:27;;;;;;;9.10;5.00;;;;;;;26.84;55.67;100374.02;1727778;82;21341;-77
2023/08/17 00:24:31;;;;;;;10.23;5.70;;;;;;;27.37;54.26;100370.26;1733423;82;21327;-73
2023/08/17 00:27:36;;;;;;;10.85;5.55;;;;;;;27.35;54.29;100371.12;1734077;82;21303;-78
2023/08/17 00:30:42;;;;;;;9.38;5.08;;;;;;;27.18;54.84;100369.47;1733919;82;21299;-73
2023/08/17 00:33:48;;;;;;;8.33;5.45;;;;;;;27.26;54.71;100369.45;1729990;81;21904;-74
2023/08/17 00:36:55;;;;;;;12.10;5.65;;;;;;;27.24;54.82;100368.34;1729478;82;21310;-73
2023/08/17 00:40:01;;;;;;;8.95;5.28;;;;;;;27.18;54.96;100369.47;1729614;83;21318;-74
2023/08/17 00:43:07;;;;;;;8.38;5.03;;;;;;;26.98;55.60;100368.94;1729446;83;21326;-77
2023/08/17 00:46:13;;;;;;;14.73;5.87;;;;;;;27.19;54.85;100368.91;1729249;82;21645;-76
2023/08/17 00:49:22;;;;;;;11.08;4.78;;;;;;;27.48;54.18;100367.14;1729548;83;21323;-76
2023/08/17 00:52:27;;;;;;;15.90;5.90;;;;;;;27.94;52.89;100367.48;1728217;82;21329;-77
2023/08/17 00:55:32;;;;;;;8.45;5.03;;;;;;;27.62;53.27;100363.14;1729551;82;21235;-73
2023/08/17 00:58:39;;;;;;;11.28;5.22;;;;;;;27.94;52.67;100361.86;1729365;83;21274;-77
2023/08/17 01:01:45;;;;;;;11.00;5.35;;;;;;;27.98;52.37;100362.39;1730026;81;21373;-77
2023/08/17 01:04:52;;;;;;;6.90;4.85;;;;;;;27.76;52.89;100361.41;1769440;81;21312;-73
2023/08/17 01:07:58;;;;;;;11.00;5.40;;;;;;;27.38;53.87;100359.29;1770604;81;21261;-76
2023/08/17 01:11:21;;;;;;;13.05;5.90;;;;;;;27.08;54.99;100363.02;1770627;81;21287;-72
2023/08/17 01:14:34;;;;;;;14.50;5.92;;;;;;;27.18;54.45;100361.61;1769791;80;21303;-77
2023/08/17 01:17:57;;;;;;;6.65;5.03;;;;;;;27.16;54.53;100365.28;1771037;81;22263;-73
2023/08/17 01:21:03;;;;;;;9.63;4.83;;;;;;;27.10;54.65;100364.47;1770782;81;21288;-73
2023/08/17 01:24:12;;;;;;;7.87;5.10;;;;;;;27.49;53.40;100363.77;1770931;81;21882;-72
2023/08/17 01:27:17;;;;;;;9.78;5.30;;;;;;;27.06;54.54;100361.08;1771061;81;21861;-77
2023/08/17 01:30:25;;;;;;;14.30;5.37;;;;;;;27.25;54.08;100358.80;1771072;80;21311;-72
2023/08/17 01:33:47;;;;;;;10.28;4.95;;;;;;;27.34;53.71;100356.81;1770905;81;21580;-72
2023/08/17 01:37:06;;;;;;;7.15;5.25;;;;;;;27.23;54.13;100356.81;1770770;81;21326;-77
2023/08/17 01:40:13;;;;;;;9.25;5.30;;;;;;;27.45;53.46;100353.66;1770874;81;21275;-72
2023/08/17 01:43:18;;;;;;;11.88;5.17;;;;;;;27.29;53.80;100351.18;1770788;81;21292;-73
2023/08/17 01:46:24;;;;;;;7.10;4.78;;;;;;;27.29;53.79;100346.97;1770982;80;21280;-77
2023/08/17 01:49:30;;;;;;;9.33;5.00;;;;;;;27.36;53.63;100345.55;1770661;81;21308;-72
2023/08/17 01:52:36;;;;;;;9.35;5.15;;;;;;;27.61;52.94;100341.77;1770852;81;21288;-76
2023/08/17 01:55:41;;;;;;;10.70;5.15;;;;;;;27.19;53.84;100340.27;1771108;81;21291;-72
2023/08/17 01:58:48;;;;;;;7.75;5.30;;;;;;;27.10;53.80;100338.33;1771243;81;21270;-74
2023/08/17 02:01:53;;;;;;;11.73;5.25;;;;;;;27.32;53.41;100340.79;1770857;81;21924;-76
2023/08/17 02:04:59;;;;;;;16.57;5.62;;;;;;;27.27;53.46;100340.25;1770694;81;21296;-72
2023/08/17 02:08:05;;;;;;;10.75;4.83;;;;;;;27.20;53.34;100333.55;1770905;81;21908;-76
2023/08/17 02:11:10;;;;;;;15.43;5.22;;;;;;;27.05;54.06;100334.94;1770790;81;21821;-73
2023/08/17 02:14:15;;;;;;;9.90;4.72;;;;;;;27.34;53.32;100342.77;1770810;81;21260;-75
2023/08/17 02:17:22;;;;;;;9.15;5.10;;;;;;;26.84;54.65;100344.55;1770862;81;21292;-72
2023/08/17 02:20:28;;;;;;;13.32;5.50;;;;;;;26.93;54.23;100344.25;1770890;81;21888;-73
2023/08/17 02:23:35;;;;;;;8.18;5.20;;;;;;;26.59;55.11;100343.47;1770808;81;21280;-76
2023/08/17 02:26:41;;;;;;;7.83;4.97;;;;;;;26.64;55.20;100337.85;1770984;81;21882;-76
2023/08/17 02:29:47;;;;;;;8.58;5.03;;;;;;;26.71;54.98;100345.40;1771031;81;21634;-72
2023/08/17 02:32:53;;;;;;;10.45;5.15;;;;;;;26.76;54.89;100345.39;1772237;81;21323;-76
2023/08/17 02:36:01;;;;;;;12.18;5.05;;;;;;;26.53;55.51;100347.38;1770765;81;21304;-76
2023/08/17 02:39:06;;;;;;;11.28;4.97;;;;;;;26.51;55.53;100341.22;1770931;81;21268;-73
2023/08/17 02:42:12;;;;;;;19.57;5.62;;;;;;;26.81;54.67;100347.91;1770863;81;21861;-73
2023/08/17 02:45:18;;;;;;;7.78;5.30;;;;;;;26.33;56.15;100348.77;1770752;81;21854;-76
2023/08/17 02:48:23;;;;;;;8.00;5.37;;;;;;;26.43;55.90;100348.79;1781930;80;21303;-76
2023/08/17 02:51:30;;;;;;;14.40;5.67;;;;;;;26.42;55.99;100353.53;1784617;80;21864;-76
2023/08/17 02:54:36;;;;;;;7.25;4.33;;;;;;;26.22;56.38;100356.33;1784586;80;21257;-76
2023/08/17 02:57:43;;;;;;;8.98;4.87;;;;;;;26.62;55.50;100358.31;1784885;80;21288;-76
2023/08/17 03:00:49;;;;;;;13.68;5.55;;;;;;;26.69;55.21;100361.69;1784675;79;21308;-76
2023/08/17 03:03:55;;;;;;;10.15;5.10;;;;;;;26.82;55.13;100360.28;1755789;80;21282;-76
2023/08/17 03:07:01;;;;;;;8.35;5.15;;;;;;;26.78;54.89;100364.77;1753602;82;21348;-76
2023/08/17 03:10:07;;;;;;;10.55;4.90;;;;;;;27.21;53.72;100367.51;1753621;82;21835;-73
2023/08/17 03:13:13;;;;;;;13.03;5.28;;;;;;;27.57;52.87;100369.33;1753523;82;21278;-73
2023/08/17 03:16:19;;;;;;;10.63;4.75;;;;;;;27.05;53.98;100366.38;1753387;82;21268;-73
2023/08/17 03:19:25;;;;;;;7.55;4.47;;;;;;;27.16;53.76;100368.93;1753532;82;21835;-73
2023/08/17 03:22:32;;;;;;;10.13;4.47;;;;;;;27.43;52.99;100370.50;1753645;82;21885;-73
2023/08/17 03:25:39;;;;;;;15.68;5.03;;;;;;;27.69;52.33;100375.46;1752896;80;21812;-76
2023/08/17 03:28:47;;;;;;;6.30;4.55;;;;;;;27.90;51.68;100371.99;1752356;82;21808;-76
2023/08/17 03:31:52;;;;;;;7.90;4.37;;;;;;;27.90;51.47;100375.67;1752064;80;21306;-73
2023/08/17 03:34:58;;;;;;;14.63;4.20;;;;;;;27.86;51.41;100370.92;1750772;82;21902;-77
2023/08/17 03:38:04;;;;;;;10.88;4.37;;;;;;;27.82;51.48;100376.27;1752239;82;21890;-77
2023/08/17 03:41:11;;;;;;;12.47;4.33;;;;;;;27.99;50.85;100375.87;1752115;80;21357;-73
2023/08/17 03:44:18;;;;;;;11.83;4.70;;;;;;;27.93;50.71;100377.05;1752320;82;21842;-73
2023/08/17 03:47:23;;;;;;;11.38;4.47;;;;;;;28.24;50.20;100372.91;1760171;80;21358;-73
2023/08/17 03:50:29;;;;;;;8.30;4.30;;;;;;;28.16;50.17;100372.69;1777578;80;21271;-73
2023/08/17 03:53:36;;;;;;;9.40;4.30;;;;;;;28.23;50.03;100371.23;1777513;80;21276;-73
2023/08/17 03:56:42;;;;;;;8.18;4.80;;;;;;;28.43;49.65;100377.87;1776902;80;21311;-77
2023/08/17 03:59:50;;;;;;;9.93;4.03;;;;;;;28.68;49.06;100372.02;1777697;80;21307;-73
2023/08/17 04:02:57;;;;;;;8.95;4.08;;;;;;;28.72;48.60;100375.92;1777727;80;21290;-73
2023/08/17 04:06:04;;;;;;;9.53;3.83;;;;;;;28.94;48.33;100381.06;1777608;80;21284;-73
2023/08/17 04:09:11;;;;;;;6.72;4.08;;;;;;;29.12;48.19;100379.48;1778132;80;21268;-78
2023/08/17 04:12:15;;;;;;;8.48;4.47;;;;;;;29.06;47.63;100380.68;1748277;80;21333;-74
2023/08/17 04:15:21;;;;;;;12.90;4.00;;;;;;;29.12;47.73;100382.30;1747140;82;21954;-74
2023/08/17 04:18:27;;;;;;;9.10;3.83;;;;;;;29.31;47.36;100388.57;1746920;80;21325;-77
2023/08/17 04:21:34;;;;;;;10.65;4.17;;;;;;;29.40;47.11;100389.02;1746960;81;21298;-77
2023/08/17 04:24:41;;;;;;;7.00;4.20;;;;;;;29.72;46.27;100390.36;1746967;82;21298;-74
2023/08/17 04:27:48;;;;;;;8.83;4.45;;;;;;;29.73;46.24;100394.84;1733407;81;21329;-78
2023/08/17 04:30:55;;;;;;;11.25;4.00;;;;;;;29.95;45.44;100395.69;1734045;81;21295;-78
2023/08/17 04:34:01;;;;;;;9.00;3.90;;;;;;;29.72;45.99;100395.42;1747359;81;21874;-78
2023/08/17 04:37:08;;;;;;;6.28;3.58;;;;;;;29.78;45.87;100394.23;1747162;82;21289;-73
2023/08/17 04:40:14;;;;;;;7.45;3.87;;;;;;;30.00;45.36;100399.84;1750956;80;21304;-77
2023/08/17 04:43:20;;;;;;;9.30;3.72;;;;;;;29.83;45.01;100398.09;1778224;80;21854;-75
2023/08/17 04:46:26;;;;;;;9.90;4.10;;;;;;;29.95;45.29;100399.91;1778013;80;21307;-73
2023/08/17 04:49:32;;;;;;;4.53;3.70;;;;;;;29.95;44.91;100400.75;1779960;80;21955;-74
2023/08/17 04:52:37;;;;;;;7.03;3.72;;;;;;;30.13;44.83;100404.77;1783290;80;21841;-77
2023/08/17 04:55:43;;;;;;;10.15;4.08;;;;;;;30.14;44.77;100402.20;1783341;80;21256;-73
2023/08/17 04:58:48;;;;;;;9.95;3.67;;;;;;;30.35;44.36;100409.80;1763563;80;21273;-74
2023/08/17 05:01:54;;;;;;;13.25;3.50;;;;;;;30.46;43.52;100405.66;1778724;80;21308;-74
2023/08/17 05:05:01;;;;;;;7.47;4.08;;;;;;;30.55;43.99;100399.59;1782650;80;21272;-82
2023/08/17 05:08:07;;;;;;;12.37;3.75;;;;;;;30.59;43.98;100402.64;1745798;82;21851;-74
2023/08/17 05:11:13;;;;;;;9.78;3.42;;;;;;;30.71;43.23;100411.48;1727945;83;21331;-75
2023/08/17 05:14:19;;;;;;;4.92;3.52;;;;;;;30.61;43.41;100408.80;1726866;83;21332;-80
2023/08/17 05:21:33;;;;;;;7.47;3.92;;;;;;;30.48;43.92;100406.75;1699796;83;21173;-80
2023/08/17 05:24:40;;;;;;;10.90;3.72;;;;;;;30.36;44.26;100405.83;1715916;83;21306;-81
2023/08/17 05:27:45;;;;;;;15.63;3.67;;;;;;;30.48;44.60;100406.75;1706357;82;21276;-74
2023/08/17 05:30:53;;;;;;;5.45;3.50;;;;;;;30.72;43.83;100407.50;1723658;82;21303;-81
2023/08/17 05:34:00;;;;;;;11.08;3.60;;;;;;;30.58;43.83;100409.41;1715590;83;21303;-75
2023/08/17 05:37:06;;;;;;;7.12;3.60;;;;;;;30.94;42.79;100415.89;1716094;83;21328;-75
2023/08/17 05:40:13;;;;;;;8.33;3.65;;;;;;;30.99;43.00;100404.50;1713920;83;21274;-81
2023/08/17 05:43:18;;;;;;;12.80;3.50;;;;;;;31.20;42.42;100410.05;1719878;83;21261;-82
2023/08/17 05:46:24;;;;;;;13.93;4.08;;;;;;;31.29;41.82;100406.80;1722755;83;21847;-75
2023/08/17 05:49:31;;;;;;;9.63;3.20;;;;;;;31.51;41.89;100408.88;1715387;82;22288;-75
2023/08/17 05:52:38;;;;;;;9.43;3.33;;;;;;;31.75;41.42;100413.48;1700228;83;21877;-75
2023/08/17 05:55:43;;;;;;;7.83;3.45;;;;;;;31.62;41.05;100411.49;1729308;82;21271;-75
2023/08/17 05:58:49;;;;;;;10.90;3.22;;;;;;;31.85;40.62;100408.21;1732400;81;21275;-82
2023/08/17 06:01:54;;;;;;;8.70;3.10;;;;;;;31.97;40.69;100416.42;1718502;82;21910;-75
2023/08/17 06:05:02;;;;;;;6.78;3.20;;;;;;;31.84;41.00;100410.78;1739514;82;21362;-75
2023/08/17 06:08:08;;;;;;;10.15;3.22;;;;;;;31.94;40.81;100415.63;1736882;82;21136;-75
2023/08/17 06:11:14;;;;;;;8.25;3.30;;;;;;;32.27;39.46;100412.05;1716895;82;21301;-81
2023/08/17 06:14:20;;;;;;;7.75;3.22;;;;;;;32.46;38.81;100403.41;1713650;82;21253;-82
2023/08/17 06:17:26;;;;;;;6.30;3.47;;;;;;;32.63;39.08;100414.63;1704818;83;21288;-81
2023/08/17 06:20:31;;;;;;;7.97;3.10;;;;;;;32.64;38.77;100406.39;1709710;83;21284;-81
2023/08/17 06:23:37;;;;;;;9.33;3.05;;;;;;;32.83;38.54;100413.52;1709036;82;21294;-76
2023/08/17 06:26:44;;;;;;;5.45;2.75;;;;;;;33.00;37.62;100418.50;1719667;81;21309;-75
2023/08/17 06:29:49;;;;;;;8.85;3.27;;;;;;;33.22;37.92;100421.03;1729999;82;21648;-75
2023/08/17 06:32:55;;;;;;;6.80;3.02;;;;;;;33.14;37.67;100421.25;1712495;81;21296;-82
2023/08/17 06:36:01;;;;;;;4.85;2.70;;;;;;;33.25;37.95;100430.30;1723628;82;21343;-81
2023/08/17 06:39:06;;;;;;;10.35;3.10;;;;;;;33.10;37.76;100428.73;1720611;82;21284;-81
2023/08/17 06:42:13;;;;;;;6.80;3.10;;;;;;;33.28;37.95;100419.16;1715299;81;21172;-75
2023/08/17 06:45:19;;;;;;;6.40;3.10;;;;;;;33.18;37.94;100426.53;1731297;81;21235;-81
2023/08/17 06:48:26;;;;;;;9.40;2.92;;;;;;;33.19;37.87;100416.86;1725867;81;21318;-75
2023/08/17 06:51:31;;;;;;;8.73;2.80;;;;;;;33.44;37.77;100415.92;1709394;81;21288;-80
2023/08/17 06:54:36;;;;;;;9.75;3.10;;;;;;;33.67;37.80;100417.51;1714698;82;21305;-75
2023/08/17 06:57:41;;;;;;;18.57;3.72;;;;;;;33.69;37.08;100420.87;1717205;82;21895;-81
2023/08/17 07:00:47;;;;;;;8.48;2.80;;;;;;;33.56;37.51;100426.07;1709220;82;21306;-75
2023/08/17 07:03:53;;;;;;;16.45;2.87;;;;;;;33.50;37.62;100419.72;1708836;82;50714;-75
2023/08/17 07:07:00;;;;;;;5.95;2.92;;;;;;;33.68;37.74;100418.34;1669107;84;21314;-81
2023/08/17 07:10:06;;;;;;;5.72;3.08;;;;;;;33.75;36.94;100420.96;1675356;84;21962;-75
2023/08/17 07:13:13;;;;;;;6.92;2.67;;;;;;;33.83;37.56;100413.66;1664715;84;21283;-81
2023/08/17 07:16:18;;;;;;;10.00;2.75;;;;;;;34.09;36.31;100412.30;1673321;84;21310;-75
2023/08/17 07:19:24;;;;;;;5.65;2.55;;;;;;;34.21;35.64;100415.33;1666458;84;21287;-75
2023/08/17 07:22:30;;;;;;;6.67;2.75;;;;;;;34.16;34.61;100412.66;1664171;84;21165;-76
2023/08/17 07:25:36;;;;;;;5.00;2.75;;;;;;;34.56;34.98;100421.05;1680897;84;21642;-74
2023/08/17 07:28:41;;;;;;;10.50;3.02;;;;;;;34.56;34.98;100421.05;1683215;84;21287;-75
2023/08/17 07:31:47;;;;;;;7.00;2.77;;;;;;;34.62;34.06;100416.85;1666505;84;21264;-76
2023/08/17 07:34:52;;;;;;;5.62;2.20;;;;;;;34.69;34.70;100417.78;1676784;84;21330;-75
2023/08/17 07:37:57;;;;;;;6.97;2.35;;;;;;;34.50;34.59;100406.77;1678656;84;21287;-77
2023/08/17 07:41:04;;;;;;;15.50;2.92;;;;;;;34.36;34.26;100425.95;1677178;85;21322;-75
2023/08/17 07:44:11;;;;;;;7.05;2.50;;;;;;;34.53;33.86;100420.28;1675587;84;21864;-75
2023/08/17 07:47:17;;;;;;;7.80;2.65;;;;;;;34.71;33.47;100425.38;1674919;84;21354;-75
2023/08/17 07:50:23;;;;;;;10.63;2.80;;;;;;;34.73;32.67;100409.67;1668907;84;21909;-75
2023/08/17 07:53:29;;;;;;;10.20;3.20;;;;;;;34.76;33.03;100416.08;1663246;84;21358;-75
2023/08/17 07:56:34;;;;;;;13.32;3.17;;;;;;;34.72;33.84;100417.92;1633364;88;21392;-81
2023/08/17 07:59:40;;;;;;;7.15;2.95;;;;;;;34.76;32.86;100408.98;1673695;84;21847;-81
2023/08/17 08:02:47;;;;;;;4.45;1.92;;;;;;;34.93;33.36;100407.30;1652221;86;21322;-82
2023/08/17 08:05:54;;;;;;;9.70;2.47;;;;;;;35.14;32.96;100403.16;1684663;84;21302;-75
2023/08/17 08:09:01;;;;;;;8.03;2.83;;;;;;;34.89;33.43;100407.13;1658067;86;21738;-75
2023/08/17 08:12:08;;;;;;;5.83;2.10;;;;;;;35.13;33.62;100402.34;1664377;84;21327;-75
2023/08/17 08:15:15;;;;;;;10.03;2.30;;;;;;;34.95;33.32;100397.25;1627618;86;21379;-76
2023/08/17 08:18:21;;;;;;;8.43;2.80;;;;;;;35.02;32.42;100388.25;1623725;87;21304;-75
2023/08/17 08:21:27;;;;;;;9.68;2.65;;;;;;;35.15;31.78;100393.45;1668448;85;21322;-75
2023/08/17 08:24:34;;;;;;;7.20;2.40;;;;;;;35.46;33.01;100396.05;1634085;86;21878;-75
2023/08/17 08:27:41;;;;;;;7.25;2.17;;;;;;;35.69;31.44;100396.61;1669096;84;21959;-75
2023/08/17 08:30:47;;;;;;;10.80;2.80;;;;;;;35.69;31.44;100396.61;1649944;86;21302;-75
2023/08/17 08:33:52;;;;;;;5.70;2.33;;;;;;;35.68;32.09;100397.20;1678133;84;21315;-76
2023/08/17 08:36:57;;;;;;;8.75;2.80;;;;;;;35.79;32.10;100394.79;1650892;86;21258;-75
2023/08/17 08:40:04;;;;;;;8.65;2.40;;;;;;;35.66;31.82;100395.86;1633413;85;21348;-75
2023/08/17 08:43:10;;;;;;;4.87;2.45;;;;;;;35.48;32.64;100400.83;1673114;85;21266;-75
2023/08/17 08:46:16;;;;;;;8.73;2.20;;;;;;;35.72;32.24;100398.78;1641956;86;21922;-75
2023/08/17 08:49:25;;;;;;;6.25;2.60;;;;;;;35.69;32.84;100407.40;1647517;86;21306;-75
2023/08/17 08:52:31;;;;;;;5.90;2.37;;;;;;;35.97;31.72;100405.52;1661988;85;21267;-75
2023/08/17 08:55:46;;;;;;;3.58;2.50;;;;;;;35.73;31.94;100399.84;1636268;87;21338;-75
2023/08/17 08:58:54;;;;;;;8.10;2.22;;;;;;;35.84;31.38;100388.90;1675223;84;21306;-74
2023/08/17 09:01:59;;;;;;;8.00;2.05;;;;;;;35.86;31.41;100403.63;1649580;85;21922;-81
2023/08/17 09:05:05;;;;;;;6.92;2.10;;;;;;;35.71;32.07;100399.94;1678706;85;22319;-83
2023/08/17 09:08:12;;;;;;;4.53;2.33;;;;;;;35.54;31.62;100388.08;1640241;86;21388;-80
2023/08/17 09:11:18;;;;;;;5.30;2.25;;;;;;;35.56;32.26;100388.55;1668182;84;21200;-74
2023/08/17 09:14:24;;;;;;;5.75;2.67;;;;;;;34.91;32.75;100395.42;1629809;85;21299;-74
2023/08/17 09:17:37;;;;;;;6.03;2.27;;;;;;;35.20;32.52;100396.97;1650000;86;21862;-74
2023/08/17 09:20:53;;;;;;;4.67;2.00;;;;;;;35.30;32.34;100400.86;1650756;84;21292;-80
2023/08/17 09:24:03;;;;;;;5.72;2.47;;;;;;;34.91;32.79;100389.73;1677413;84;21325;-73
2023/08/17 09:27:08;;;;;;;8.68;2.40;;;;;;;34.91;32.99;100391.16;1655303;85;21291;-80
2023/08/17 09:30:18;;;;;;;6.45;2.80;;;;;;;34.89;33.18;100387.24;1659541;84;21739;-73
2023/08/17 09:33:24;;;;;;;9.05;2.50;;;;;;;34.80;33.04;100395.78;1645775;86;21300;-80
2023/08/17 09:36:30;;;;;;;4.10;2.05;;;;;;;34.83;34.05;100390.02;1638907;86;21337;-74
2023/08/17 09:39:36;;;;;;;5.97;2.37;;;;;;;34.90;33.39;100392.33;1665391;85;21901;-74
2023/08/17 09:42:45;;;;;;;8.90;2.80;;;;;;;35.30;32.86;100399.44;1640043;86;21285;-81
2023/08/17 09:45:54;;;;;;;5.60;2.40;;;;;;;35.08;32.35;100385.47;1675406;84;21398;-81
2023/08/17 09:49:01;;;;;;;;;;;;;;;35.15;33.18;100387.22;1655270;85;21659;-80
2023/08/17 09:52:08;;;;;;;5.30;2.40;;;;;;;35.30;32.92;100389.49;1656522;84;20259;-81
2023/08/17 09:55:16;;;;;;;4.35;2.50;;;;;;;35.16;32.81;100383.19;1650233;86;21389;-75
2023/08/17 09:58:22;;;;;;;3.40;2.22;;;;;;;35.22;33.57;100383.83;1672605;84;21323;-81
2023/08/17 10:01:30;;;;;;;5.62;2.10;;;;;;;35.27;32.98;100393.59;1604890;89;21343;-74
2023/08/17 10:04:36;;;;;;;6.42;2.35;;;;;;;35.53;32.76;100388.67;1624545;86;21972;-75
2023/08/17 10:07:42;;;;;;;8.25;2.08;;;;;;;35.52;32.54;100386.14;1676401;85;21370;-81
2023/08/17 10:10:50;;;;;;;8.23;2.33;;;;;;;35.63;32.28;100391.71;1634486;86;21372;-81
2023/08/17 10:14:02;;;;;;;5.03;2.50;;;;;;;35.67;31.90;100394.71;1668510;84;21940;-75
2023/08/17 10:17:16;;;;;;;9.50;2.33;;;;;;;35.72;31.95;100378.27;1614276;87;22267;-82
2023/08/17 10:20:21;;;;;;;6.60;2.52;;;;;;;35.94;31.71;100392.77;1666482;84;21284;-75
2023/08/17 10:23:27;;;;;;;7.92;2.30;;;;;;;35.88;31.53;100386.20;1669977;84;21327;-80
2023/08/17 10:26:33;;;;;;;6.92;2.27;;;;;;;35.92;32.34;100390.03;1626225;85;21282;-74
2023/08/17 10:29:39;;;;;;;3.02;2.05;;;;;;;35.88;32.03;100391.30;1666652;84;21347;-75
2023/08/17 10:32:47;;;;;;;3.75;2.27;;;;;;;35.79;31.84;100386.25;1669050;84;21781;-81
2023/08/17 10:35:52;;;;;;;6.08;2.70;;;;;;;35.83;31.95;100376.69;1647095;85;21346;-75
2023/08/17 10:39:29;;;;;;;6.53;2.40;;;;;;;35.64;31.94;100377.73;1661867;84;21345;-75
2023/08/17 10:42:43;;;;;;;9.58;2.72;;;;;;;35.73;31.63;100378.52;1662110;85;21298;-75
2023/08/17 10:45:50;;;;;;;3.33;2.33;;;;;;;35.78;31.66;100395.38;1663353;85;22125;-75
2023/08/17 10:48:56;;;;;;;8.40;2.87;;;;;;;35.82;32.10;100389.25;1669263;85;21247;-81
2023/08/17 10:52:16;;;;;;;7.67;2.70;;;;;;;36.03;31.41;100388.47;1660742;84;21287;-81
2023/08/17 10:55:22;;;;;;;;;;;;;;;35.62;32.87;100380.66;1671939;84;21272;-75
2023/08/17 10:58:28;;;;;;;5.58;2.20;;;;;;;36.00;31.41;100389.18;1679065;84;20675;-80
2023/08/17 11:01:48;;;;;;;5.28;2.62;;;;;;;36.01;31.52;100387.41;1669269;84;21855;-82
2023/08/17 11:04:58;;;;;;;8.83;2.30;;;;;;;35.84;31.66;100382.61;1652193;85;21316;-82
2023/08/17 11:08:04;;;;;;;11.03;2.95;;;;;;;35.78;32.30;100385.42;1633191;86;21311;-82
2023/08/17 11:11:22;;;;;;;5.65;2.55;;;;;;;35.70;31.84;100389.14;1663386;84;21323;-75
2023/08/17 11:14:27;;;;;;;5.15;2.27;;;;;;;35.77;32.00;100375.82;1668894;84;21762;-82
2023/08/17 11:17:33;;;;;;;7.20;2.30;;;;;;;35.55;31.99;100382.03;1662619;85;21286;-75
2023/08/17 11:20:37;;;;;;;4.47;2.37;;;;;;;35.70;32.79;100373.50;1646072;85;21263;-82
2023/08/17 11:23:43;;;;;;;9.75;3.08;;;;;;;35.79;32.34;100372.86;1663232;85;21852;-75
2023/08/17 11:26:49;;;;;;;7.37;2.30;;;;;;;35.60;32.01;100381.01;1666927;85;21291;-82
2023/08/17 11:29:55;;;;;;;4.95;1.98;;;;;;;35.49;32.43;100376.30;1661149;85;21280;-81
2023/08/17 11:33:03;;;;;;;7.97;2.27;;;;;;;35.84;32.18;100366.13;1667525;85;21271;-76
2023/08/17 11:36:11;;;;;;;5.50;2.40;;;;;;;35.79;31.05;100370.61;1665968;85;21315;-81
2023/08/17 11:39:20;;;;;;;9.40;2.30;;;;;;;35.70;32.02;100362.13;1667124;85;21877;-81
2023/08/17 11:42:24;;;;;;;10.15;2.40;;;;;;;35.76;31.68;100366.45;1663167;85;21807;-82
2023/08/17 11:45:29;;;;;;;6.12;2.10;;;;;;;35.97;31.30;100363.66;1651547;87;21314;-77
2023/08/17 11:48:34;;;;;;;8.85;2.37;;;;;;;35.90;31.38;100367.62;1648777;85;21644;-80
2023/08/17 11:51:40;;;;;;;5.15;2.20;;;;;;;36.20;31.31;100362.73;1666877;85;21275;-75
2023/08/17 11:54:49;;;;;;;4.35;2.10;;;;;;;36.09;30.71;100362.31;1665907;85;21279;-82
2023/08/17 11:57:55;;;;;;;3.87;2.40;;;;;;;36.06;31.86;100361.58;1662590;85;21292;-75
2023/08/17 12:01:04;;;;;;;7.92;2.98;;;;;;;35.97;31.39;100369.34;1660003;86;21283;-75
2023/08/17 12:04:13;;;;;;;5.50;2.22;;;;;;;35.93;30.94;100351.85;1658210;86;21287;-76
2023/08/17 12:07:19;;;;;;;7.00;2.33;;;;;;;36.03;31.92;100358.58;1642979;86;22257;-81
2023/08/17 12:10:26;;;;;;;6.15;2.02;;;;;;;36.05;31.46;100351.97;1658956;86;21263;-82
2023/08/17 12:13:42;;;;;;;6.78;2.10;;;;;;;36.45;29.99;100349.46;1657768;86;21857;-81
2023/08/17 12:16:55;;;;;;;11.00;2.45;;;;;;;36.35;30.99;100352.11;1658010;86;21272;-82
2023/08/17 12:20:03;;;;;;;6.92;2.30;;;;;;;36.42;30.13;100347.86;1656889;86;21264;-77
2023/08/17 12:23:09;;;;;;;12.23;2.23;;;;;;;36.55;29.77;100341.06;1657412;86;21288;-81
2023/08/17 12:26:16;;;;;;;4.22;1.87;;;;;;;36.62;30.24;100341.34;1649955;86;21287;-82
2023/08/17 12:29:21;;;;;;;6.25;2.15;;;;;;;36.56;28.98;100333.62;1657835;86;21264;-75
2023/08/17 12:32:28;;;;;;;3.60;2.22;;;;;;;36.69;30.16;100339.34;1661097;86;21315;-80
2023/08/17 12:35:33;;;;;;;8.08;2.30;;;;;;;36.44;29.61;100347.80;1662700;86;21324;-74
2023/08/17 12:38:44;;;;;;;7.03;2.45;;;;;;;36.32;30.25;100354.26;1645013;87;21292;-80
2023/08/17 12:41:46;;;;;;;5.55;2.45;;;;;;;36.24;29.78;100341.52;1650008;86;21307;-74
2023/08/17 12:44:53;;;;;;;6.58;2.30;;;;;;;36.24;30.07;100348.04;1668213;86;21311;-80
2023/08/17 12:48:01;;;;;;;8.23;2.35;;;;;;;36.28;29.60;100343.91;1669659;86;21320;-75
2023/08/17 12:51:06;;;;;;;6.25;2.20;;;;;;;36.16;29.69;100343.25;1671808;86;21319;-82
2023/08/17 12:54:12;;;;;;;6.90;2.12;;;;;;;36.22;29.98;100336.74;1668552;86;21344;-81
2023/08/17 12:57:19;;;;;;;2.25;1.82;;;;;;;36.07;30.22;100336.78;1644000;86;21293;-75
2023/08/17 13:00:24;;;;;;;4.87;2.10;;;;;;;36.16;30.65;100338.98;1652930;85;21279;-81
2023/08/17 13:03:30;;;;;;;8.63;2.60;;;;;;;36.17;30.52;100347.75;1673071;85;21295;-82
2023/08/17 13:06:36;;;;;;;5.62;2.40;;;;;;;35.91;29.81;100342.84;1680210;85;21363;-81
2023/08/17 13:09:42;;;;;;;5.87;2.35;;;;;;;35.97;29.95;100342.91;1680555;85;21295;-75
2023/08/17 13:12:48;;;;;;;4.60;1.90;;;;;;;35.70;30.43;100333.67;1647930;87;21316;-81
2023/08/17 13:15:53;;;;;;;8.05;2.27;;;;;;;35.60;30.23;100332.66;1638881;87;21228;-75
2023/08/17 13:18:58;;;;;;;5.28;2.20;;;;;;;35.82;29.80;100336.61;1678516;85;21275;-80
2023/08/17 13:22:04;;;;;;;3.83;2.20;;;;;;;35.92;29.94;100338.22;1651535;87;21326;-81
2023/08/17 13:25:09;;;;;;;4.03;2.25;;;;;;;35.80;29.69;100345.23;1680532;85;21287;-76
2023/08/17 13:28:15;;;;;;;9.53;2.27;;;;;;;36.04;29.86;100346.88;1651512;87;21334;-81
2023/08/17 13:31:21;;;;;;;7.62;2.12;;;;;;;35.96;29.71;100340.65;1680651;85;21363;-75
2023/08/17 13:34:27;;;;;;;3.20;2.00;;;;;;;35.74;30.41;100344.61;1651347;87;21345;-75
2023/08/17 13:37:32;;;;;;;7.83;2.30;;;;;;;35.77;30.11;100346.78;1680390;85;21319;-75
2023/08/17 13:40:39;;;;;;;10.08;2.72;;;;;;;35.79;29.35;100347.25;1651608;87;22188;-75
2023/08/17 13:43:44;;;;;;;5.45;2.25;;;;;;;35.69;29.68;100344.81;1680601;85;21299;-75
2023/08/17 13:46:51;;;;;;;10.35;2.10;;;;;;;35.96;29.72;100350.61;1651559;87;22010;-75
2023/08/17 13:49:57;;;;;;;10.00;2.50;;;;;;;35.82;29.80;100341.48;1680322;85;21311;-75
2023/08/17 13:53:02;;;;;;;8.73;2.00;;;;;;;35.90;29.95;100338.30;1651579;87;21306;-76
2023/08/17 13:56:01;;;;;;;6.97;1.95;;;;;;;35.89;29.09;100340.31;1680227;85;21290;-81
2023/08/17 13:59:02;;;;;;;10.05;2.35;;;;;;;35.71;29.60;100336.78;1650930;86;21415;-75
2023/08/17 14:02:09;;;;;;;4.72;2.00;;;;;;;35.46;30.45;100339.18;1679321;85;21366;-82
2023/08/17 14:05:19;;;;;;;5.53;2.12;;;;;;;35.41;30.61;100346.45;1651095;87;21708;-79
2023/08/17 14:08:23;;;;;;;7.87;2.12;;;;;;;35.33;31.00;100338.20;1680617;85;21312;-77
2023/08/17 14:11:29;;;;;;;5.65;2.15;;;;;;;35.50;30.38;100344.43;1651085;87;21923;-82
2023/08/17 14:14:35;;;;;;;5.62;2.10;;;;;;;35.62;30.28;100347.39;1680257;85;21856;-75
2023/08/17 14:17:41;;;;;;;4.37;2.05;;;;;;;35.53;29.59;100336.64;1650375;87;21349;-75
2023/08/17 14:20:48;;;;;;;5.83;1.90;;;;;;;35.61;29.86;100342.84;1679257;85;21299;-75
2023/08/17 14:23:53;;;;;;;4.75;2.33;;;;;;;35.64;29.91;100337.91;1651702;87;21322;-81
2023/08/17 14:26:58;;;;;;;9.13;2.00;;;;;;;35.18;29.65;100335.94;1679960;85;21314;-81
2023/08/17 14:30:05;;;;;;;6.87;2.30;;;;;;;35.25;30.46;100336.26;1650732;87;21309;-81
2023/08/17 14:33:10;;;;;;;3.50;1.42;;;;;;;35.32;30.79;100330.27;1662044;85;21309;-81